Time;durP1;ratioP1;P1;durP2;ratioP2;P2;SDS_P1;SDS_P2;PMS_P1;PMS_P2;Temp;Humidity;BMP_temperature;BMP_pressure;BME280_temperature;BME280_humidity;BME280_pressure;Samples;Min_cycle;Max_cycle;Signal;HPM_P1;HPM_P2
2021/01/31 00:01:38;;;;;;;23.07;13.20;;;6.00;99.90;;;;;;5045799;28;20505;-59
2021/01/31 00:04:04;;;;;;;23.93;13.90;;;3.30;99.90;;;;;;5045071;28;20458;-59
2021/01/31 00:06:30;;;;;;;25.13;14.85;;;5.90;99.90;;;;;;5043875;28;20397;-59
2021/01/31 00:08:55;;;;;;;27.17;15.60;;;3.40;99.90;;;;;;5046435;28;20395;-59
2021/01/31 00:11:21;;;;;;;28.67;15.60;;;6.50;99.90;;;;;;5043602;28;20810;-59
2021/01/31 00:13:47;;;;;;;26.67;15.50;;;3.50;99.90;;;;;;5044207;28;20906;-59
2021/01/31 00:16:13;;;;;;;26.58;14.48;;;3.60;99.90;;;;;;5024682;28;20443;-59
2021/01/31 00:18:41;;;;;;;26.08;14.00;;;5.90;99.90;;;;;;5042983;28;20381;-59
2021/01/31 00:21:06;;;;;;;26.40;14.32;;;6.60;99.90;;;;;;5045450;28;20492;-59
2021/01/31 00:23:32;;;;;;;28.43;14.03;;;3.30;99.90;;;;;;5048446;28;20906;-59
2021/01/31 00:25:58;;;;;;;26.00;15.38;;;3.40;99.90;;;;;;5045824;28;20400;-59
2021/01/31 00:28:25;;;;;;;26.98;14.13;;;3.30;99.90;;;;;;5048608;28;20377;-59
2021/01/31 00:30:51;;;;;;;26.20;14.30;;;3.10;99.90;;;;;;5045629;28;20417;-59
2021/01/31 00:33:21;;;;;;;28.55;14.88;;;3.20;99.90;;;;;;5048373;28;20385;-59
2021/01/31 00:35:49;;;;;;;26.40;14.02;;;6.30;99.90;;;;;;5048946;28;20729;-59
2021/01/31 00:38:17;;;;;;;27.42;14.48;;;4.40;99.90;;;;;;5041983;28;20482;-60
2021/01/31 00:40:43;;;;;;;27.73;15.57;;;4.90;99.90;;;;;;5046924;28;20398;-59
2021/01/31 00:43:09;;;;;;;26.90;14.50;;;3.60;99.90;;;;;;5049577;28;20384;-59
2021/01/31 00:45:35;;;;;;;22.73;13.27;;;3.20;99.90;;;;;;5043853;28;20389;-59
2021/01/31 00:48:00;;;;;;;24.63;12.87;;;3.10;99.90;;;;;;5053721;28;20469;-59
2021/01/31 00:50:32;;;;;;;23.27;12.88;;;5.00;99.90;;;;;;5049765;28;20492;-59
2021/01/31 00:52:58;;;;;;;23.58;12.93;;;4.70;99.90;;;;;;5048915;28;20381;-59
2021/01/31 00:55:23;;;;;;;21.67;12.33;;;3.40;99.90;;;;;;5046626;28;20439;-59
2021/01/31 00:57:50;;;;;;;23.23;13.30;;;3.40;99.90;;;;;;5047632;28;20481;-59
2021/01/31 01:00:45;;;;;;;22.65;12.93;;;3.50;99.90;;;;;;5038072;28;20385;-59
2021/01/31 01:03:11;;;;;;;21.90;12.43;;;6.50;99.90;;;;;;5023956;28;20908;-59
2021/01/31 01:05:36;;;;;;;20.40;12.30;;;4.50;99.90;;;;;;5052929;28;20374;-59
2021/01/31 01:08:03;;;;;;;19.73;11.43;;;5.00;99.90;;;;;;5046284;28;20395;-59
2021/01/31 01:10:32;;;;;;;20.90;12.15;;;3.50;99.90;;;;;;5042895;28;20416;-57
2021/01/31 01:12:58;;;;;;;23.00;12.10;;;3.60;99.90;;;;;;5045581;28;20421;-59
2021/01/31 01:15:26;;;;;;;21.38;12.02;;;6.40;99.90;;;;;;5043863;28;20381;-59
2021/01/31 01:17:53;;;;;;;22.85;12.80;;;3.40;99.90;;;;;;5046218;28;20482;-59
2021/01/31 01:20:19;;;;;;;21.27;12.55;;;5.20;99.90;;;;;;5043437;28;20400;-59
2021/01/31 01:22:44;;;;;;;24.80;13.18;;;3.30;99.90;;;;;;5053615;28;20382;-62
2021/01/31 01:25:12;;;;;;;23.27;12.97;;;3.30;99.90;;;;;;5045568;28;20395;-61
2021/01/31 01:27:39;;;;;;;22.63;13.00;;;3.40;99.90;;;;;;5043688;28;20386;-59
2021/01/31 01:30:09;;;;;;;23.77;13.50;;;3.40;99.90;;;;;;5045450;28;20475;-59
2021/01/31 01:32:38;;;;;;;25.00;13.20;;;3.40;99.90;;;;;;5044897;28;20373;-59
2021/01/31 01:35:06;;;;;;;28.70;13.95;;;3.40;99.90;;;;;;5053049;28;20464;-59
2021/01/31 01:37:35;;;;;;;24.75;13.68;;;1.50;99.90;;;;;;5040309;28;20993;-59
2021/01/31 01:40:02;;;;;;;23.67;12.50;;;3.40;99.90;;;;;;5048459;28;20405;-59
2021/01/31 01:42:28;;;;;;;23.13;13.10;;;3.40;99.90;;;;;;5024528;28;20407;-59
2021/01/31 01:44:54;;;;;;;28.40;12.87;;;5.00;99.90;;;;;;5043787;28;20403;-59
2021/01/31 01:47:23;;;;;;;26.37;14.17;;;3.30;99.90;;;;;;5044819;28;20397;-59
2021/01/31 01:49:53;;;;;;;27.67;14.80;;;5.30;99.90;;;;;;5040677;28;20411;-59
2021/01/31 01:52:51;;;;;;;27.08;15.07;;;3.80;99.90;;;;;;5037048;28;20395;-59
2021/01/31 01:55:18;;;;;;;25.23;14.20;;;3.40;99.90;;;;;;5020742;28;21023;-59
2021/01/31 01:57:51;;;;;;;24.23;13.77;;;3.50;99.90;;;;;;5040608;28;20497;-59
2021/01/31 02:00:17;;;;;;;25.85;14.50;;;3.40;99.90;;;;;;5045850;28;20378;-59
2021/01/31 02:03:01;;;;;;;29.52;15.43;;;3.40;99.90;;;;;;5053148;28;20460;-59
2021/01/31 02:05:27;;;;;;;23.60;14.30;;;3.40;99.90;;;;;;5039667;28;20869;-58
2021/01/31 02:07:53;;;;;;;28.85;14.60;;;3.30;99.90;;;;;;5048721;28;20723;-59
2021/01/31 02:10:23;;;;;;;25.83;15.18;;;3.30;99.90;;;;;;5038829;28;20449;-59
2021/01/31 02:12:55;;;;;;;31.90;16.05;;;3.20;99.90;;;;;;5051081;28;20877;-59
2021/01/31 02:15:21;;;;;;;28.13;14.73;;;3.50;99.90;;;;;;5038838;28;20399;-59
2021/01/31 02:18:27;;;;;;;28.67;14.10;;;3.10;99.90;;;;;;5048980;28;20385;-59
2021/01/31 02:21:14;;;;;;;26.87;14.57;;;3.10;99.90;;;;;;5045159;28;20399;-59
2021/01/31 02:24:31;;;;;;;25.33;14.50;;;3.00;99.90;;;;;;5042815;28;20377;-59
2021/01/31 02:27:24;;;;;;;27.02;15.60;;;3.10;99.90;;;;;;5017845;28;20415;-59
2021/01/31 02:30:30;;;;;;;27.23;14.90;;;3.00;99.90;;;;;;5047667;28;20447;-59
2021/01/31 02:33:13;;;;;;;27.30;14.88;;;3.00;99.90;;;;;;5040846;28;20742;-59
2021/01/31 02:35:44;;;;;;;27.85;13.73;;;3.10;99.90;;;;;;5037149;28;20390;-59
2021/01/31 02:38:18;;;;;;;25.77;13.50;;;3.00;99.90;;;;;;5044070;28;20365;-58
2021/01/31 02:41:07;;;;;;;26.73;14.35;;;6.50;99.90;;;;;;5050059;28;20400;-59
2021/01/31 02:43:41;;;;;;;24.37;13.80;;;4.40;99.90;;;;;;5028341;28;21168;-59
2021/01/31 02:46:25;;;;;;;21.70;13.27;;;5.10;99.90;;;;;;5033137;28;20390;-59
2021/01/31 02:49:08;;;;;;;23.58;13.85;;;3.20;99.90;;;;;;5040263;28;20402;-59
2021/01/31 02:51:50;;;;;;;24.13;13.45;;;3.40;99.90;;;;;;5030495;28;21098;-59
2021/01/31 02:54:31;;;;;;;23.33;12.67;;;4.90;99.90;;;;;;5036725;28;20393;-59
2021/01/31 02:57:03;;;;;;;21.73;12.23;;;4.30;99.90;;;;;;5044787;28;20389;-59
2021/01/31 02:59:55;;;;;;;23.60;13.60;;;3.10;99.90;;;;;;5035797;28;20407;-60
2021/01/31 03:02:37;;;;;;;23.05;13.10;;;5.80;99.90;;;;;;5049201;28;20409;-59
2021/01/31 03:05:19;;;;;;;24.50;13.53;;;3.80;99.90;;;;;;5036881;28;20395;-58
2021/01/31 03:08:15;;;;;;;27.88;14.93;;;2.90;99.90;;;;;;5042494;28;20477;-58
2021/01/31 03:10:49;;;;;;;26.60;15.00;;;2.80;99.90;;;;;;5044107;28;20425;-59
2021/01/31 03:13:24;;;;;;;28.70;14.77;;;2.80;99.90;;;;;;5041553;28;20962;-60
2021/01/31 03:16:39;;;;;;;26.92;13.90;;;4.90;99.90;;;;;;5031263;28;20407;-58
2021/01/31 03:19:20;;;;;;;26.10;14.23;;;4.80;99.90;;;;;;5031388;28;20430;-59
2021/01/31 03:21:51;;;;;;;26.60;14.77;;;4.60;99.90;;;;;;5043351;28;20391;-59
2021/01/31 03:24:35;;;;;;;26.10;14.35;;;3.90;99.90;;;;;;5040442;28;20417;-60
2021/01/31 03:27:13;;;;;;;26.55;14.70;;;4.10;99.90;;;;;;5032181;28;20714;-59
2021/01/31 03:29:39;;;;;;;22.48;13.68;;;2.80;99.90;;;;;;5039748;28;20387;-58
2021/01/31 03:32:09;;;;;;;24.92;14.30;;;2.80;99.90;;;;;;5031994;28;20391;-59
2021/01/31 03:34:49;;;;;;;25.03;13.90;;;5.90;99.90;;;;;;5036368;28;20373;-59
2021/01/31 03:37:15;;;;;;;26.50;14.60;;;3.00;99.90;;;;;;5040422;28;20389;-59
2021/01/31 03:39:45;;;;;;;25.65;14.65;;;3.10;99.90;;;;;;5039119;28;20468;-59
2021/01/31 03:42:12;;;;;;;27.13;14.52;;;2.90;99.90;;;;;;5041823;28;20735;-59
2021/01/31 03:44:42;;;;;;;25.48;14.07;;;3.00;99.90;;;;;;5028397;28;20735;-58
2021/01/31 03:47:34;;;;;;;25.95;14.43;;;2.90;99.90;;;;;;5036438;28;20399;-59
2021/01/31 03:50:01;;;;;;;27.25;14.35;;;3.00;99.90;;;;;;5023982;28;20434;-59
2021/01/31 03:52:28;;;;;;;26.23;14.90;;;3.10;99.90;;;;;;5035037;28;20399;-59
2021/01/31 03:54:54;;;;;;;25.52;14.40;;;2.90;99.90;;;;;;5040576;28;20789;-59
2021/01/31 03:57:36;;;;;;;27.38;15.45;;;3.70;99.90;;;;;;5040929;28;20380;-59
2021/01/31 04:00:13;;;;;;;26.00;14.27;;;2.90;99.90;;;;;;5048919;28;20378;-59
2021/01/31 04:02:46;;;;;;;26.42;14.23;;;2.70;99.90;;;;;;5036979;28;20407;-58
2021/01/31 04:05:13;;;;;;;24.67;14.48;;;4.90;99.90;;;;;;5050276;28;20637;-58
2021/01/31 04:07:45;;;;;;;27.00;14.45;;;5.70;99.90;;;;;;5044831;28;20395;-59
2021/01/31 04:10:13;;;;;;;26.20;14.57;;;2.70;99.90;;;;;;5040418;28;20510;-59
2021/01/31 04:12:42;;;;;;;25.58;14.00;;;2.70;99.90;;;;;;5035329;28;20917;-59
2021/01/31 04:15:31;;;;;;;23.55;13.65;;;3.00;99.90;;;;;;5043181;28;20389;-59
2021/01/31 04:17:57;;;;;;;27.83;14.90;;;2.80;99.90;;;;;;5049570;28;20921;-59
2021/01/31 04:20:22;;;;;;;24.60;13.90;;;3.20;99.90;;;;;;5036916;28;20491;-58
2021/01/31 04:22:48;;;;;;;25.92;13.68;;;6.00;99.90;;;;;;5045027;28;20378;-56
2021/01/31 04:25:14;;;;;;;25.43;14.53;;;2.80;99.90;;;;;;5032739;28;20753;-56
2021/01/31 04:27:40;;;;;;;25.23;14.27;;;2.70;99.90;;;;;;5048661;28;20408;-59
2021/01/31 04:30:08;;;;;;;24.73;13.83;;;2.60;99.90;;;;;;5037801;28;20506;-58
2021/01/31 04:32:35;;;;;;;25.73;13.98;;;2.70;99.90;;;;;;5044674;28;20389;-59
2021/01/31 04:35:00;;;;;;;27.63;14.50;;;4.80;99.90;;;;;;5035913;28;20490;-58
2021/01/31 04:37:26;;;;;;;22.80;13.00;;;6.10;99.90;;;;;;5042404;28;20845;-59
2021/01/31 04:39:52;;;;;;;23.85;13.30;;;3.40;99.90;;;;;;5038771;28;20397;-58
2021/01/31 04:42:20;;;;;;;24.45;13.05;;;2.60;99.90;;;;;;5049238;28;20405;-60
2021/01/31 04:44:48;;;;;;;24.25;13.77;;;5.10;99.90;;;;;;5044887;28;20391;-59
2021/01/31 04:47:28;;;;;;;24.93;14.10;;;5.30;99.90;;;;;;5040505;28;20461;-58
2021/01/31 04:50:10;;;;;;;21.90;12.00;;;2.50;99.90;;;;;;5031546;28;20426;-59
2021/01/31 04:53:01;;;;;;;27.23;13.10;;;2.40;99.90;;;;;;5036461;28;20373;-59
2021/01/31 04:55:50;;;;;;;25.85;14.32;;;2.50;99.90;;;;;;5047351;28;20414;-59
2021/01/31 04:58:34;;;;;;;22.67;13.75;;;2.60;99.90;;;;;;5039042;28;20378;-59
2021/01/31 05:01:12;;;;;;;24.70;13.52;;;2.70;99.90;;;;;;5045514;28;20790;-59
2021/01/31 05:03:50;;;;;;;25.20;14.10;;;2.60;99.90;;;;;;5040050;28;20379;-59
2021/01/31 05:06:18;;;;;;;23.60;13.20;;;2.70;99.90;;;;;;5036097;28;20485;-59
2021/01/31 05:08:48;;;;;;;23.17;13.38;;;2.80;99.90;;;;;;5044796;28;20389;-59
2021/01/31 05:11:35;;;;;;;22.40;13.55;;;3.60;99.90;;;;;;5042378;28;20419;-59
2021/01/31 05:14:16;;;;;;;23.88;12.40;;;2.90;99.90;;;;;;5037296;28;20403;-58
2021/01/31 05:16:42;;;;;;;23.80;12.85;;;5.50;99.90;;;;;;5029216;28;20386;-59
2021/01/31 05:19:13;;;;;;;22.85;13.70;;;4.00;99.90;;;;;;5036420;28;20403;-59
2021/01/31 05:21:40;;;;;;;22.65;12.77;;;6.50;99.90;;;;;;5010940;28;20399;-59
2021/01/31 05:24:17;;;;;;;21.13;12.60;;;3.20;99.90;;;;;;5040458;28;20394;-59
2021/01/31 05:26:50;;;;;;;22.65;12.70;;;4.50;99.90;;;;;;5041044;28;20535;-59
2021/01/31 05:29:30;;;;;;;21.58;13.32;;;3.30;99.90;;;;;;5045972;28;20412;-59
2021/01/31 05:32:08;;;;;;;22.27;12.40;;;5.70;99.90;;;;;;5039905;28;20421;-60
2021/01/31 05:34:37;;;;;;;22.27;12.85;;;3.20;99.90;;;;;;5033309;28;20413;-59
2021/01/31 05:37:09;;;;;;;26.50;12.88;;;3.10;99.90;;;;;;5044155;28;20853;-59
2021/01/31 05:39:43;;;;;;;22.83;13.00;;;3.10;99.90;;;;;;5033192;28;20407;-58
2021/01/31 05:42:18;;;;;;;22.25;13.05;;;3.30;99.90;;;;;;5043260;28;20913;-60
2021/01/31 05:44:56;;;;;;;22.83;13.50;;;4.60;99.90;;;;;;5045258;28;20393;-60
2021/01/31 05:47:24;;;;;;;23.35;13.30;;;3.30;99.90;;;;;;5043390;28;20385;-59
2021/01/31 05:49:54;;;;;;;23.17;12.80;;;3.70;99.90;;;;;;5041406;28;20407;-59
2021/01/31 05:52:23;;;;;;;22.67;12.80;;;3.20;99.90;;;;;;5039010;28;20864;-59
2021/01/31 05:54:53;;;;;;;23.90;12.88;;;3.30;99.90;;;;;;5040646;28;20704;-59
2021/01/31 05:57:31;;;;;;;22.40;12.82;;;6.20;99.90;;;;;;5033455;28;20397;-61
2021/01/31 05:59:58;;;;;;;23.52;13.40;;;3.40;99.90;;;;;;5049524;28;20397;-59
2021/01/31 06:02:31;;;;;;;21.77;12.50;;;3.50;99.90;;;;;;5049819;28;20399;-59
2021/01/31 06:05:19;;;;;;;21.05;11.68;;;3.40;99.90;;;;;;5048168;28;20894;-59
2021/01/31 06:07:56;;;;;;;23.17;12.85;;;3.40;99.90;;;;;;5049770;28;20484;-59
2021/01/31 06:10:22;;;;;;;22.33;12.68;;;3.40;99.90;;;;;;5044431;28;20479;-60
2021/01/31 06:12:49;;;;;;;23.35;13.48;;;3.40;99.90;;;;;;5051932;28;20444;-59
2021/01/31 06:15:23;;;;;;;21.27;12.65;;;6.20;99.90;;;;;;5045544;28;20486;-59
2021/01/31 06:18:04;;;;;;;20.90;12.70;;;3.50;99.90;;;;;;5043111;28;20788;-59
2021/01/31 06:20:34;;;;;;;22.55;13.15;;;3.40;99.90;;;;;;5037156;28;20403;-59
2021/01/31 06:23:02;;;;;;;26.40;14.30;;;3.40;99.90;;;;;;5024992;28;20433;-60
2021/01/31 06:25:27;;;;;;;23.15;13.45;;;3.40;99.90;;;;;;5042948;28;20441;-60
2021/01/31 06:28:10;;;;;;;22.73;13.07;;;6.00;99.90;;;;;;5032266;28;20798;-61
2021/01/31 06:30:52;;;;;;;23.52;13.80;;;3.20;99.90;;;;;;5039980;28;20411;-60
2021/01/31 06:33:18;;;;;;;23.33;13.27;;;3.10;99.90;;;;;;5014478;28;20786;-60
2021/01/31 06:35:44;;;;;;;20.67;12.52;;;3.10;99.90;;;;;;5036115;28;20460;-60
2021/01/31 06:38:31;;;;;;;21.95;12.65;;;3.00;99.90;;;;;;5048366;28;20378;-59
2021/01/31 06:41:26;;;;;;;20.88;12.15;;;2.90;99.90;;;;;;5043437;28;20458;-60
2021/01/31 06:44:08;;;;;;;28.90;12.70;;;2.90;99.90;;;;;;5031918;28;20394;-59
2021/01/31 06:46:48;;;;;;;24.60;13.38;;;4.20;99.90;;;;;;5031801;28;20411;-60
2021/01/31 06:49:35;;;;;;;22.80;12.43;;;4.60;99.90;;;;;;5039485;28;20385;-61
2021/01/31 06:52:36;;;;;;;27.25;14.50;;;3.10;99.90;;;;;;5044261;28;20437;-61
2021/01/31 06:55:15;;;;;;;21.20;12.70;;;3.10;99.90;;;;;;5043315;28;20412;-59
2021/01/31 06:57:50;;;;;;;21.73;12.90;;;3.20;99.90;;;;;;5040585;28;20397;-58
2021/01/31 07:00:21;;;;;;;20.67;12.10;;;3.10;99.90;;;;;;5038611;28;20528;-59
2021/01/31 07:02:52;;;;;;;21.35;12.10;;;6.30;99.90;;;;;;5051267;28;20440;-60
2021/01/31 07:05:56;;;;;;;22.15;12.45;;;3.20;99.90;;;;;;5050362;28;20403;-59
2021/01/31 07:08:48;;;;;;;23.48;12.70;;;3.20;99.90;;;;;;5037000;28;20892;-60
2021/01/31 07:11:36;;;;;;;24.23;13.00;;;3.60;99.90;;;;;;5038814;28;20477;-59
2021/01/31 07:14:25;;;;;;;23.48;12.82;;;3.10;99.90;;;;;;5045583;28;20492;-60
2021/01/31 07:17:13;;;;;;;24.90;13.20;;;3.40;99.90;;;;;;5043776;28;20492;-59
2021/01/31 07:20:18;;;;;;;23.08;13.23;;;3.20;99.90;;;;;;5039179;28;20402;-59
2021/01/31 07:23:11;;;;;;;23.52;13.80;;;3.20;99.90;;;;;;5030421;28;20730;-58
2021/01/31 07:25:49;;;;;;;23.92;13.10;;;3.30;99.90;;;;;;5040786;28;20389;-60
2021/01/31 07:28:37;;;;;;;22.30;11.75;;;3.50;99.90;;;;;;5035689;28;20749;-60
2021/01/31 07:31:10;;;;;;;23.42;13.23;;;5.30;99.90;;;;;;5045275;28;20422;-60
2021/01/31 07:33:49;;;;;;;20.83;12.15;;;5.10;99.90;;;;;;5035266;28;20457;-56
2021/01/31 07:36:23;;;;;;;21.73;12.43;;;3.50;99.90;;;;;;5033118;28;20411;-56
2021/01/31 07:39:01;;;;;;;20.02;11.60;;;3.80;99.90;;;;;;5032347;28;20402;-57
2021/01/31 07:41:28;;;;;;;23.45;13.23;;;3.40;99.90;;;;;;5039666;28;20735;-58
2021/01/31 07:44:09;;;;;;;21.38;11.65;;;3.50;99.90;;;;;;5046971;28;20445;-57
2021/01/31 07:46:34;;;;;;;20.60;10.85;;;3.40;99.90;;;;;;5034897;28;20384;-57
2021/01/31 07:49:03;;;;;;;19.85;11.85;;;4.10;99.90;;;;;;5036237;28;20489;-57
2021/01/31 07:51:29;;;;;;;20.88;11.98;;;5.00;99.90;;;;;;5038757;28;20785;-57
2021/01/31 07:53:55;;;;;;;20.40;11.55;;;3.40;99.90;;;;;;5046789;28;20405;-57
2021/01/31 07:56:27;;;;;;;21.13;12.60;;;5.20;99.90;;;;;;5045943;28;20407;-63
2021/01/31 07:59:09;;;;;;;18.80;11.70;;;4.30;99.90;;;;;;5046178;28;20463;-58
2021/01/31 08:01:40;;;;;;;22.65;11.30;;;3.60;99.90;;;;;;5041271;28;20795;-56
2021/01/31 08:04:15;;;;;;;20.00;11.32;;;4.60;99.90;;;;;;5047113;28;20381;-57
2021/01/31 08:06:42;;;;;;;21.02;12.10;;;3.70;99.90;;;;;;5039884;28;20405;-56
2021/01/31 08:09:09;;;;;;;20.08;12.68;;;3.70;99.90;;;;;;5047528;28;20487;-58
2021/01/31 08:11:38;;;;;;;22.93;12.53;;;3.70;99.90;;;;;;5044976;28;20427;-57
2021/01/31 08:14:07;;;;;;;24.63;13.07;;;3.80;99.90;;;;;;5046142;28;20413;-59
2021/01/31 08:16:47;;;;;;;24.25;13.57;;;3.70;99.90;;;;;;5047553;28;20393;-58
2021/01/31 08:19:19;;;;;;;21.33;12.60;;;5.40;99.90;;;;;;5045419;28;20423;-57
2021/01/31 08:21:46;;;;;;;20.87;12.53;;;3.70;99.90;;;;;;5041975;28;20514;-58
2021/01/31 08:24:11;;;;;;;21.38;12.73;;;3.70;99.90;;;;;;5042471;28;20404;-59
2021/01/31 08:26:43;;;;;;;24.48;13.65;;;3.70;99.90;;;;;;5045505;28;20397;-59
2021/01/31 08:29:21;;;;;;;23.15;13.23;;;3.80;99.90;;;;;;5045236;28;20407;-58
2021/01/31 08:32:11;;;;;;;23.75;13.70;;;3.80;99.90;;;;;;5042979;28;20883;-58
2021/01/31 08:35:03;;;;;;;23.92;13.40;;;3.90;99.90;;;;;;5040990;28;21391;-58
2021/01/31 08:37:29;;;;;;;24.63;14.32;;;4.10;99.90;;;;;;5044007;28;20447;-57
2021/01/31 08:39:55;;;;;;;21.30;11.70;;;4.30;99.90;;;;;;5047721;28;20481;-56
2021/01/31 08:42:21;;;;;;;24.20;13.63;;;4.00;99.90;;;;;;5044352;28;20759;-62
2021/01/31 08:44:56;;;;;;;26.63;14.57;;;4.00;99.90;;;;;;5046402;28;20385;-57
2021/01/31 08:47:21;;;;;;;24.15;14.10;;;4.60;99.90;;;;;;5045597;28;21251;-63
2021/01/31 08:50:02;;;;;;;21.90;11.88;;;4.00;99.90;;;;;;5047577;28;20385;-57
2021/01/31 08:52:28;;;;;;;21.58;12.27;;;4.00;99.90;;;;;;5034774;28;20478;-59
2021/01/31 08:55:06;;;;;;;20.48;12.68;;;4.20;99.90;;;;;;5043013;28;20533;-59
2021/01/31 08:57:32;;;;;;;20.48;11.95;;;4.20;99.90;;;;;;5037339;28;20773;-57
2021/01/31 09:00:04;;;;;;;20.00;11.32;;;4.20;99.90;;;;;;5031570;28;20428;-57
2021/01/31 09:02:30;;;;;;;22.10;12.63;;;4.20;99.90;;;;;;5034743;28;20389;-58
2021/01/31 09:05:11;;;;;;;22.45;13.60;;;4.20;99.90;;;;;;5038715;28;20856;-57
2021/01/31 09:07:40;;;;;;;20.73;11.90;;;6.00;99.90;;;;;;5043674;28;20417;-57
2021/01/31 09:10:40;;;;;;;20.52;11.80;;;5.80;99.90;;;;;;5043769;28;20413;-56
2021/01/31 09:13:33;;;;;;;20.70;12.50;;;4.40;99.90;;;;;;5048760;28;20779;-59
2021/01/31 09:16:10;;;;;;;19.70;12.50;;;4.40;99.90;;;;;;5051765;28;20407;-58
2021/01/31 09:18:36;;;;;;;20.73;12.70;;;4.30;99.90;;;;;;5046485;28;20468;-57
2021/01/31 09:21:19;;;;;;;19.95;11.77;;;4.40;99.90;;;;;;5046928;28;20543;-60
2021/01/31 09:23:45;;;;;;;21.00;11.87;;;4.40;99.90;;;;;;5037111;28;21025;-56
2021/01/31 09:26:12;;;;;;;20.05;11.50;;;5.80;99.90;;;;;;5044038;28;20378;-56
2021/01/31 09:28:41;;;;;;;19.08;11.52;;;4.40;99.90;;;;;;5043050;28;20951;-57
2021/01/31 09:31:08;;;;;;;17.17;10.25;;;4.30;99.90;;;;;;5047726;28;20420;-57
2021/01/31 09:33:41;;;;;;;20.23;12.15;;;6.30;99.90;;;;;;5046185;28;20436;-59
2021/01/31 09:36:25;;;;;;;20.13;12.40;;;4.40;99.90;;;;;;5049307;28;20409;-58
2021/01/31 09:38:52;;;;;;;20.60;11.50;;;6.30;99.90;;;;;;5044787;28;20560;-58
2021/01/31 09:41:21;;;;;;;18.25;11.63;;;4.50;99.90;;;;;;5046024;28;20419;-57
2021/01/31 09:43:52;;;;;;;20.00;11.57;;;4.60;99.90;;;;;;5045785;28;20401;-59
2021/01/31 09:46:19;;;;;;;19.27;11.52;;;5.90;99.90;;;;;;5041905;28;20395;-59
2021/01/31 09:48:45;;;;;;;20.25;12.10;;;4.80;99.90;;;;;;5036578;28;20493;-57
2021/01/31 09:51:24;;;;;;;17.35;10.50;;;5.00;99.90;;;;;;5034563;28;20549;-58
2021/01/31 09:53:50;;;;;;;17.02;10.73;;;4.70;99.90;;;;;;5032468;28;20481;-58
2021/01/31 09:56:38;;;;;;;18.43;11.40;;;4.60;99.90;;;;;;5035254;28;20422;-57
2021/01/31 09:59:20;;;;;;;19.15;11.50;;;4.60;99.90;;;;;;5038113;28;20485;-58
2021/01/31 10:01:46;;;;;;;17.88;11.40;;;4.50;99.90;;;;;;5033138;28;20454;-58
2021/01/31 10:04:20;;;;;;;17.02;10.73;;;4.60;99.90;;;;;;5045010;28;20416;-58
2021/01/31 10:06:48;;;;;;;18.60;10.52;;;4.70;99.90;;;;;;5037070;28;20371;-57
2021/01/31 10:09:26;;;;;;;16.55;10.32;;;4.70;99.90;;;;;;5032694;28;20431;-58
2021/01/31 10:12:31;;;;;;;17.88;11.48;;;6.50;99.90;;;;;;5042583;28;20422;-58
2021/01/31 10:15:08;;;;;;;16.40;9.50;;;6.10;99.90;;;;;;5032578;28;20500;-59
2021/01/31 10:17:46;;;;;;;13.85;8.85;;;4.80;99.90;;;;;;5039747;28;20388;-58
2021/01/31 10:20:25;;;;;;;14.80;9.07;;;4.50;99.90;;;;;;5043014;28;21019;-59
2021/01/31 10:22:53;;;;;;;14.73;8.85;;;5.00;99.90;;;;;;5045970;28;20416;-59
2021/01/31 10:25:19;;;;;;;15.35;8.98;;;7.60;99.90;;;;;;5038683;28;20414;-58
2021/01/31 10:27:48;;;;;;;14.68;8.77;;;4.40;99.90;;;;;;5039637;28;20419;-57
2021/01/31 10:30:39;;;;;;;15.65;9.30;;;4.30;99.90;;;;;;5037986;28;20424;-58
2021/01/31 10:33:06;;;;;;;14.98;9.30;;;4.30;99.90;;;;;;5031408;28;20410;-57
2021/01/31 10:35:36;;;;;;;13.25;8.43;;;4.40;99.90;;;;;;5043207;28;20417;-58
2021/01/31 10:38:32;;;;;;;16.05;9.50;;;4.50;99.90;;;;;;5033155;28;20395;-57
2021/01/31 10:41:00;;;;;;;13.40;8.63;;;4.60;99.90;;;;;;5040647;28;20401;-58
2021/01/31 10:43:26;;;;;;;15.47;9.43;;;4.60;99.90;;;;;;5034708;28;20505;-62
2021/01/31 10:45:52;;;;;;;21.02;11.68;;;5.10;99.90;;;;;;5038362;28;20417;-57
2021/01/31 10:48:18;;;;;;;15.20;9.05;;;4.60;99.90;;;;;;5038615;28;20832;-58
2021/01/31 10:50:45;;;;;;;14.55;9.50;;;4.40;99.90;;;;;;5033785;28;20442;-58
2021/01/31 10:53:10;;;;;;;17.97;10.30;;;4.50;99.90;;;;;;5040635;28;20382;-57
2021/01/31 10:55:36;;;;;;;17.33;10.13;;;4.40;99.90;;;;;;5046498;28;20397;-59
2021/01/31 10:58:02;;;;;;;16.23;9.98;;;4.40;99.90;;;;;;5038617;28;20865;-57
2021/01/31 11:00:27;;;;;;;17.33;9.87;;;4.40;99.90;;;;;;5044097;28;20430;-64
2021/01/31 11:02:53;;;;;;;15.20;9.97;;;4.30;99.90;;;;;;5048222;28;20428;-58
2021/01/31 11:05:19;;;;;;;16.33;10.18;;;4.30;99.90;;;;;;5044909;28;20434;-58
2021/01/31 11:07:45;;;;;;;15.35;9.95;;;4.40;99.90;;;;;;5040240;28;20509;-58
2021/01/31 11:10:15;;;;;;;15.90;9.70;;;4.40;99.90;;;;;;5046185;28;20891;-57
2021/01/31 11:12:41;;;;;;;16.70;9.82;;;4.50;99.90;;;;;;5043937;28;20402;-58
2021/01/31 11:15:07;;;;;;;18.02;10.57;;;4.80;99.90;;;;;;5041738;28;20413;-57
2021/01/31 11:17:33;;;;;;;16.33;10.43;;;4.50;99.90;;;;;;5037832;28;20401;-58
2021/01/31 11:19:59;;;;;;;15.80;9.75;;;4.50;99.90;;;;;;5034869;28;20410;-58
2021/01/31 11:22:24;;;;;;;15.10;9.53;;;6.40;99.90;;;;;;5045568;28;20389;-61
2021/01/31 11:24:50;;;;;;;18.30;9.67;;;4.90;99.90;;;;;;5048989;28;20388;-58
2021/01/31 11:27:16;;;;;;;17.13;9.70;;;4.70;99.90;;;;;;5037618;28;20400;-57
2021/01/31 11:29:41;;;;;;;18.27;10.70;;;4.70;99.90;;;;;;5029807;28;20452;-57
2021/01/31 11:32:07;;;;;;;16.63;9.53;;;4.90;99.90;;;;;;5038424;28;20394;-57
2021/01/31 11:34:34;;;;;;;18.80;10.63;;;4.90;99.90;;;;;;5039963;28;20391;-59
2021/01/31 11:36:59;;;;;;;17.80;10.30;;;4.80;99.90;;;;;;5044755;28;20397;-58
2021/01/31 11:39:25;;;;;;;37.10;25.00;;;4.80;99.90;;;;;;5037053;28;20406;-61
2021/01/31 11:41:51;;;;;;;19.30;11.02;;;7.60;99.90;;;;;;5033108;28;20423;-59
2021/01/31 11:44:16;;;;;;;19.83;11.93;;;4.80;99.90;;;;;;5049166;28;20705;-58
2021/01/31 11:46:42;;;;;;;20.03;11.90;;;4.90;99.90;;;;;;5037375;28;20869;-57
2021/01/31 11:49:08;;;;;;;18.67;10.07;;;4.90;99.90;;;;;;5040974;28;20967;-57
2021/01/31 11:51:33;;;;;;;17.80;10.18;;;4.80;99.90;;;;;;5040768;28;20500;-58
2021/01/31 11:53:59;;;;;;;20.20;11.67;;;4.70;99.90;;;;;;5042150;28;20392;-57
2021/01/31 11:56:25;;;;;;;21.00;11.15;;;4.70;99.90;;;;;;5041592;28;20418;-61
2021/01/31 11:58:51;;;;;;;17.00;10.40;;;4.70;99.90;;;;;;5047203;28;20469;-58
2021/01/31 12:01:18;;;;;;;17.10;9.98;;;4.70;99.90;;;;;;5045039;28;20401;-57
2021/01/31 12:03:47;;;;;;;22.30;11.65;;;4.70;99.90;;;;;;5048372;28;20467;-58
2021/01/31 12:06:13;;;;;;;22.30;13.17;;;4.90;99.90;;;;;;5044853;28;20431;-59
2021/01/31 12:08:39;;;;;;;17.40;10.50;;;5.10;99.90;;;;;;5048300;28;20385;-59
2021/01/31 12:11:06;;;;;;;19.85;10.68;;;5.10;99.90;;;;;;5045537;28;20453;-58
2021/01/31 12:13:31;;;;;;;18.92;10.38;;;5.10;99.90;;;;;;5048339;28;20405;-57
2021/01/31 12:15:57;;;;;;;16.37;9.80;;;5.20;99.90;;;;;;5049277;28;20385;-58
2021/01/31 12:18:23;;;;;;;15.07;9.20;;;5.10;99.90;;;;;;5036637;28;20792;-58
2021/01/31 12:20:48;;;;;;;17.15;9.80;;;5.30;99.90;;;;;;5041827;28;20460;-58
2021/01/31 12:23:14;;;;;;;18.33;10.10;;;5.30;99.90;;;;;;5037269;28;20539;-59
2021/01/31 12:25:40;;;;;;;17.43;9.53;;;5.40;99.90;;;;;;5048668;28;20497;-59
2021/01/31 12:28:06;;;;;;;16.92;9.45;;;5.30;99.90;;;;;;5047618;28;20386;-59
2021/01/31 12:30:33;;;;;;;17.35;10.57;;;5.40;99.90;;;;;;5033979;28;20433;-59
2021/01/31 12:33:00;;;;;;;18.42;11.20;;;5.10;99.90;;;;;;5049941;28;20385;-58
2021/01/31 12:35:26;;;;;;;18.83;10.70;;;5.20;99.90;;;;;;5045420;28;20423;-58
2021/01/31 12:37:52;;;;;;;16.80;9.75;;;1.90;99.90;;;;;;5015285;28;20393;-58
2021/01/31 12:40:20;;;;;;;18.00;10.50;;;5.40;99.90;;;;;;5048114;28;20819;-58
2021/01/31 12:42:46;;;;;;;18.48;9.88;;;5.20;99.90;;;;;;5042398;28;20389;-58
2021/01/31 12:45:13;;;;;;;18.80;10.52;;;5.00;99.90;;;;;;5048421;28;20403;-58
2021/01/31 12:47:39;;;;;;;16.08;9.77;;;4.90;99.90;;;;;;5043622;28;20525;-58
2021/01/31 12:50:05;;;;;;;16.97;9.87;;;4.90;99.90;;;;;;5033700;28;20502;-56
2021/01/31 12:52:31;;;;;;;17.95;10.27;;;5.00;99.90;;;;;;5046156;28;20409;-49
2021/01/31 12:54:57;;;;;;;16.80;10.10;;;5.00;99.90;;;;;;5031631;28;20420;-49
2021/01/31 12:57:23;;;;;;;16.30;9.90;;;5.00;99.90;;;;;;5042124;28;20924;-49
2021/01/31 12:59:49;;;;;;;17.38;10.57;;;5.80;99.90;;;;;;5037196;28;20401;-49
2021/01/31 13:02:15;;;;;;;18.15;10.50;;;5.30;99.90;;;;;;5023697;28;20401;-49
2021/01/31 13:04:41;;;;;;;19.57;11.13;;;5.40;99.90;;;;;;5043585;28;20889;-50
2021/01/31 13:07:07;;;;;;;16.50;10.05;;;5.40;99.90;;;;;;5034496;28;20400;-49